createdAt,value
2022-11-12T00:01:25.351Z,1.10
2022-11-12T00:04:13.443Z,1.13
2022-11-12T00:07:00.224Z,1.20
2022-11-12T00:09:46.772Z,1.50
2022-11-12T00:12:33.630Z,0.80
2022-11-12T00:15:20.501Z,1.10
2022-11-12T00:18:07.716Z,1.65
2022-11-12T00:20:55.202Z,1.08
2022-11-12T00:23:41.851Z,1.23
2022-11-12T00:26:28.522Z,1.10
2022-11-12T00:29:15.162Z,1.00
2022-11-12T00:32:01.783Z,1.17
2022-11-12T00:34:48.603Z,1.58
2022-11-12T00:37:36.455Z,1.00
2022-11-12T00:40:22.861Z,0.88
2022-11-12T00:43:09.452Z,1.23
2022-11-12T00:45:56.132Z,1.02
2022-11-12T00:48:42.809Z,1.10
2022-11-12T00:51:29.431Z,0.90
2022-11-12T00:54:17.554Z,1.25
2022-11-12T00:57:03.903Z,1.25
2022-11-12T00:59:50.642Z,0.88
2022-11-12T01:02:43.246Z,0.73
2022-11-12T01:05:31.071Z,1.10
2022-11-12T01:08:17.751Z,0.80
2022-11-12T01:11:10.843Z,0.95
2022-11-12T01:14:00.107Z,1.10
2022-11-12T01:16:46.442Z,1.08
2022-11-12T01:19:33.058Z,1.15
2022-11-12T01:22:19.521Z,0.88
2022-11-12T01:25:06.972Z,0.95
2022-11-12T01:27:54.772Z,1.25
2022-11-12T01:30:41.242Z,1.40
2022-11-12T01:33:27.692Z,1.48
2022-11-12T01:36:16.011Z,0.60
2022-11-12T01:39:02.392Z,1.23
2022-11-12T01:41:49.220Z,0.75
2022-11-12T01:44:40.502Z,1.20
2022-11-12T01:47:30.980Z,0.77
2022-11-12T01:50:25.412Z,0.77
2022-11-12T01:53:14.284Z,0.75
2022-11-12T01:56:02.169Z,0.90
2022-11-12T01:58:51.791Z,0.77
2022-11-12T02:01:40.151Z,0.93
2022-11-12T02:04:28.071Z,0.80
2022-11-12T02:07:14.954Z,0.52
2022-11-12T02:10:03.232Z,0.90
2022-11-12T02:13:10.231Z,0.82
2022-11-12T02:15:57.221Z,0.55
2022-11-12T02:18:45.141Z,0.70
2022-11-12T02:21:33.103Z,0.57
2022-11-12T02:24:34.080Z,0.82
2022-11-12T02:27:20.961Z,1.02
2022-11-12T02:30:08.600Z,0.73
2022-11-12T02:32:55.042Z,1.05
2022-11-12T02:35:42.220Z,0.85
2022-11-12T02:38:30.451Z,0.80
2022-11-12T02:41:17.135Z,1.00
2022-11-12T02:44:03.500Z,0.82
2022-11-12T02:46:50.270Z,0.80
2022-11-12T02:49:36.860Z,0.50
2022-11-12T02:52:23.629Z,0.85
2022-11-12T02:55:13.889Z,0.75
2022-11-12T02:58:00.808Z,1.00
2022-11-12T03:00:48.424Z,0.95
2022-11-12T03:03:35.360Z,0.98
2022-11-12T03:06:22.129Z,0.90
2022-11-12T03:09:08.677Z,1.27
2022-11-12T03:11:56.550Z,1.50
2022-11-12T03:14:42.979Z,1.90
2022-11-12T03:17:29.547Z,2.15
2022-11-12T03:20:16.880Z,2.25
2022-11-12T03:23:06.413Z,2.08
2022-11-12T03:25:52.874Z,2.25
2022-11-12T03:28:40.590Z,1.67
2022-11-12T03:31:27.211Z,2.20
2022-11-12T03:34:14.021Z,2.58
2022-11-12T03:37:00.682Z,2.42
2022-11-12T03:39:47.290Z,2.95
2022-11-12T03:42:33.801Z,2.53
2022-11-12T03:45:23.640Z,2.53
2022-11-12T03:48:10.371Z,2.35
2022-11-12T03:50:59.539Z,2.70
2022-11-12T03:53:46.310Z,2.55
2022-11-12T03:56:32.712Z,2.45
2022-11-12T03:59:19.292Z,2.70
2022-11-12T04:02:07.300Z,3.17
2022-11-12T04:05:11.853Z,3.17
2022-11-12T04:08:17.454Z,3.08
2022-11-12T04:11:05.841Z,3.83
2022-11-12T04:13:52.621Z,3.80
2022-11-12T04:16:56.481Z,3.72
2022-11-12T04:20:01.810Z,4.10
2022-11-12T04:22:48.390Z,3.70
2022-11-12T04:25:49.736Z,3.50
2022-11-12T04:28:36.272Z,3.42
2022-11-12T04:31:22.051Z,3.50
2022-11-12T04:34:26.635Z,3.38
2022-11-12T04:40:20.992Z,2.88
2022-11-12T04:43:27.741Z,3.40
2022-11-12T04:46:13.971Z,3.25
2022-11-12T04:49:00.802Z,3.33
2022-11-12T04:52:05.092Z,3.40
2022-11-12T04:54:52.951Z,3.53
2022-11-12T04:57:40.054Z,3.72
2022-11-12T05:00:26.741Z,3.42
2022-11-12T05:03:13.490Z,3.45
2022-11-12T05:06:03.132Z,3.65
2022-11-12T05:08:49.831Z,3.25
2022-11-12T05:11:37.850Z,3.15
2022-11-12T05:14:25.389Z,3.53
2022-11-12T05:17:11.960Z,3.50
2022-11-12T05:19:58.561Z,3.25
2022-11-12T05:22:59.103Z,3.58
2022-11-12T05:25:51.480Z,3.25
2022-11-12T05:28:39.343Z,3.05
2022-11-12T05:31:26.191Z,3.03
2022-11-12T05:34:16.439Z,3.05
2022-11-12T05:37:07.962Z,3.17
2022-11-12T05:39:54.300Z,3.17
2022-11-12T05:42:41.229Z,3.03
2022-11-12T05:45:29.211Z,3.22
2022-11-12T05:48:18.860Z,3.33
2022-11-12T05:51:15.460Z,3.80
2022-11-12T05:54:02.328Z,3.88
2022-11-12T05:56:48.743Z,3.33
2022-11-12T05:59:35.340Z,3.42
2022-11-12T06:02:23.409Z,3.65
2022-11-12T06:05:10.899Z,3.75
2022-11-12T06:07:57.590Z,4.10
2022-11-12T06:10:44.357Z,3.70
2022-11-12T06:13:31.099Z,3.67
2022-11-12T06:16:17.709Z,4.00
2022-11-12T06:19:06.085Z,3.33
2022-11-12T06:21:52.520Z,3.53
2022-11-12T06:24:39.060Z,4.45
2022-11-12T06:27:25.860Z,3.30
2022-11-12T06:30:12.920Z,3.70
2022-11-12T06:32:59.330Z,3.80
2022-11-12T06:35:47.412Z,3.28
2022-11-12T06:38:35.670Z,3.10
2022-11-12T06:41:22.380Z,3.15
2022-11-12T06:44:08.763Z,3.40
2022-11-12T06:46:55.610Z,2.92
2022-11-12T06:49:42.180Z,3.53
2022-11-12T06:52:30.147Z,3.35
2022-11-12T06:55:16.771Z,3.85
2022-11-12T06:58:03.509Z,3.30
2022-11-12T07:00:50.281Z,2.92
2022-11-12T07:03:37.857Z,3.38
2022-11-12T07:06:24.251Z,3.00
2022-11-12T07:09:12.190Z,3.72
2022-11-12T07:11:58.545Z,3.50
2022-11-12T07:14:45.264Z,2.92
2022-11-12T07:17:32.183Z,3.30
2022-11-12T07:20:19.039Z,3.70
2022-11-12T07:23:05.620Z,3.90
2022-11-12T07:25:58.829Z,3.05
2022-11-12T07:28:45.580Z,2.95
2022-11-12T07:31:32.081Z,3.38
2022-11-12T07:34:18.752Z,4.00
2022-11-12T07:37:05.468Z,3.92
2022-11-12T07:39:52.104Z,3.97
2022-11-12T07:42:40.100Z,3.90
2022-11-12T07:45:26.648Z,3.33
2022-11-12T07:48:13.410Z,3.35
2022-11-12T07:51:02.240Z,3.50
2022-11-12T07:53:50.340Z,3.78
2022-11-12T07:56:38.451Z,3.33
2022-11-12T07:59:26.351Z,3.72
2022-11-12T08:02:13.219Z,3.45
2022-11-12T08:04:59.868Z,3.50
2022-11-12T08:07:46.591Z,4.05
2022-11-12T08:10:33.141Z,3.97
2022-11-12T08:13:19.641Z,3.88
2022-11-12T08:16:08.361Z,3.70
2022-11-12T08:18:55.139Z,3.97
2022-11-12T08:21:41.823Z,3.60
2022-11-12T08:24:28.491Z,4.00
2022-11-12T08:27:15.181Z,3.80
2022-11-12T08:30:02.072Z,4.22
2022-11-12T08:32:56.911Z,3.92
2022-11-12T08:35:43.566Z,3.97
2022-11-12T08:38:30.392Z,3.92
2022-11-12T08:41:17.772Z,4.28
2022-11-12T08:44:08.488Z,3.83
2022-11-12T08:46:55.482Z,4.47
2022-11-12T08:49:47.818Z,3.97
2022-11-12T08:52:34.812Z,5.10
2022-11-12T08:55:21.612Z,4.03
2022-11-12T08:58:10.542Z,3.65
2022-11-12T09:00:58.884Z,5.10
2022-11-12T09:03:45.330Z,3.67
2022-11-12T09:06:33.523Z,4.55
2022-11-12T09:09:20.034Z,5.70
2022-11-12T09:12:15.053Z,4.53
2022-11-12T09:15:35.736Z,4.80
2022-11-12T09:18:14.862Z,4.35
2022-11-12T09:21:03.251Z,5.00
2022-11-12T09:23:51.361Z,4.93
2022-11-12T09:26:37.809Z,5.72
2022-11-12T09:29:24.559Z,5.22
2022-11-12T09:32:11.201Z,5.35
2022-11-12T09:34:58.021Z,6.13
2022-11-12T09:37:44.929Z,6.35
2022-11-12T09:40:46.803Z,5.53
2022-11-12T09:43:35.741Z,5.28
2022-11-12T09:46:37.271Z,6.82
2022-11-12T09:49:29.972Z,6.25
2022-11-12T09:52:20.933Z,5.93
2022-11-12T09:55:14.437Z,6.55
2022-11-12T09:58:02.504Z,6.60
2022-11-12T10:00:56.206Z,6.70
2022-11-12T10:03:52.920Z,7.07
2022-11-12T10:06:50.102Z,5.35
2022-11-12T10:09:48.270Z,6.20
2022-11-12T10:12:47.983Z,6.47
2022-11-12T10:16:02.227Z,6.03
2022-11-12T10:19:01.652Z,7.75
2022-11-12T10:21:56.004Z,6.88
2022-11-12T10:27:42.677Z,7.80
2022-11-12T10:30:29.182Z,7.80
2022-11-12T10:33:17.721Z,6.80
2022-11-12T10:36:26.071Z,6.32
2022-11-12T10:39:32.960Z,7.63
2022-11-12T10:42:21.241Z,6.60
2022-11-12T10:45:22.493Z,6.97
2022-11-12T10:48:27.212Z,7.70
2022-11-12T10:51:22.075Z,6.75
2022-11-12T10:54:30.539Z,6.65
2022-11-12T10:57:25.004Z,6.28
2022-11-12T11:00:19.407Z,6.95
2022-11-12T11:06:00.430Z,6.03
2022-11-12T11:08:49.228Z,5.90
2022-11-12T11:11:35.653Z,5.55
2022-11-12T11:14:29.670Z,6.80
2022-11-12T11:17:19.231Z,5.60
2022-11-12T11:20:07.531Z,5.55
2022-11-12T11:22:58.141Z,5.95
2022-11-12T11:25:44.943Z,5.80
2022-11-12T11:28:40.060Z,4.88
2022-11-12T11:31:38.500Z,5.70
2022-11-12T11:34:39.434Z,5.63
2022-11-12T11:37:28.920Z,6.13
2022-11-12T11:40:26.764Z,5.85
2022-11-12T11:43:29.420Z,6.53
2022-11-12T11:46:27.772Z,5.93
2022-11-12T11:49:39.189Z,5.47
2022-11-12T11:52:43.899Z,6.05
2022-11-12T11:58:44.060Z,6.03
2022-11-12T12:01:39.291Z,5.90
2022-11-12T12:04:43.799Z,5.47
2022-11-12T12:07:38.714Z,5.63
2022-11-12T12:10:53.355Z,5.45
2022-11-12T12:13:52.395Z,5.70
2022-11-12T12:16:49.501Z,6.45
2022-11-12T12:19:48.397Z,5.47
2022-11-12T12:22:39.659Z,6.32
2022-11-12T12:25:29.416Z,5.05
2022-11-12T12:28:30.711Z,5.57
2022-11-12T12:31:23.699Z,5.43
2022-11-12T12:34:21.192Z,4.45
2022-11-12T12:37:16.061Z,4.43
2022-11-12T12:40:12.748Z,3.90
2022-11-12T12:43:06.870Z,4.72
2022-11-12T12:48:43.923Z,4.07
2022-11-12T12:51:32.470Z,4.65
2022-11-12T12:54:52.361Z,4.63
2022-11-12T12:57:40.821Z,4.75
2022-11-12T13:00:32.492Z,5.30
2022-11-12T13:03:56.361Z,4.82
2022-11-12T13:06:54.855Z,4.80
2022-11-12T13:09:41.959Z,4.50
2022-11-12T13:12:58.011Z,4.07
2022-11-12T13:15:46.312Z,4.57
2022-11-12T13:18:59.317Z,5.50
2022-11-12T13:21:47.391Z,3.88
2022-11-12T13:25:11.068Z,4.22
2022-11-12T13:28:16.462Z,4.30
2022-11-12T13:31:05.041Z,3.88
2022-11-12T13:33:51.857Z,4.45
2022-11-12T13:36:38.881Z,3.95
2022-11-12T13:39:26.643Z,3.65
2022-11-12T13:42:34.161Z,3.78
2022-11-12T13:45:23.640Z,3.97
2022-11-12T13:48:16.891Z,4.32
2022-11-12T13:51:07.023Z,4.47
2022-11-12T13:53:53.470Z,4.38
2022-11-12T13:56:41.648Z,4.20
2022-11-12T13:59:28.059Z,4.82
2022-11-12T14:02:23.312Z,4.53
2022-11-12T14:05:16.821Z,3.67
2022-11-12T14:08:29.492Z,4.88
2022-11-12T14:11:36.510Z,4.15
2022-11-12T14:14:35.780Z,4.97
2022-11-12T14:17:32.230Z,5.32
2022-11-12T14:20:26.820Z,5.70
2022-11-12T14:23:21.556Z,5.40
2022-11-12T14:26:12.860Z,5.00
2022-11-12T14:28:59.780Z,5.45
2022-11-12T14:32:02.050Z,4.68
2022-11-12T14:34:48.620Z,4.35
2022-11-12T14:37:43.049Z,4.47
2022-11-12T14:40:33.050Z,3.67
2022-11-12T14:43:27.717Z,4.70
2022-11-12T14:46:24.974Z,4.43
2022-11-12T14:49:19.401Z,4.97
2022-11-12T14:52:15.011Z,4.28
2022-11-12T14:55:09.390Z,4.72
2022-11-12T14:57:58.874Z,3.92
2022-11-12T15:00:47.598Z,4.78
2022-11-12T15:03:35.390Z,4.22
2022-11-12T15:06:32.534Z,4.05
2022-11-12T15:09:21.994Z,4.85
2022-11-12T15:12:14.276Z,5.22
2022-11-12T15:15:09.841Z,4.47
2022-11-12T15:18:00.271Z,4.55
2022-11-12T15:20:47.021Z,5.13
2022-11-12T15:23:35.061Z,4.78
2022-11-12T15:26:27.599Z,5.05
2022-11-12T15:29:23.683Z,4.07
2022-11-12T15:32:32.132Z,4.43
2022-11-12T15:35:22.697Z,4.15
2022-11-12T15:38:15.291Z,4.65
2022-11-12T15:41:04.382Z,4.53
2022-11-12T15:43:51.081Z,5.68
2022-11-12T15:46:38.396Z,6.10
2022-11-12T15:49:25.278Z,5.90
2022-11-12T15:52:12.058Z,5.03
2022-11-12T15:54:58.771Z,5.65
2022-11-12T15:57:49.793Z,4.88
2022-11-12T16:00:39.068Z,5.35
2022-11-12T16:03:26.211Z,5.50
2022-11-12T16:06:13.520Z,5.80
2022-11-12T16:09:00.260Z,6.05
2022-11-12T16:11:47.911Z,5.13
2022-11-12T16:14:36.600Z,5.40
2022-11-12T16:17:23.291Z,5.82
2022-11-12T16:20:15.671Z,5.75
2022-11-12T16:23:02.212Z,5.75
2022-11-12T16:25:49.492Z,5.63
2022-11-12T16:28:36.973Z,5.90
2022-11-12T16:31:25.049Z,6.32
2022-11-12T16:34:12.202Z,4.95
2022-11-12T16:36:59.260Z,5.97
2022-11-12T16:39:46.002Z,5.75
2022-11-12T16:42:33.057Z,6.10
2022-11-12T16:45:21.878Z,5.60
2022-11-12T16:48:15.380Z,5.75
2022-11-12T16:51:01.870Z,5.25
2022-11-12T16:53:48.931Z,5.07
2022-11-12T16:56:36.282Z,5.35
2022-11-12T16:59:22.769Z,6.05
2022-11-12T17:02:15.483Z,5.40
2022-11-12T17:05:04.509Z,4.72
2022-11-12T17:07:55.630Z,5.70
2022-11-12T17:10:42.301Z,4.82
2022-11-12T17:13:29.438Z,4.90
2022-11-12T17:16:16.311Z,5.25
2022-11-12T17:19:03.260Z,4.80
2022-11-12T17:21:50.897Z,4.97
2022-11-12T17:24:37.830Z,4.78
2022-11-12T17:27:24.371Z,4.55
2022-11-12T17:30:12.146Z,4.50
2022-11-12T17:33:00.609Z,4.85
2022-11-12T17:35:47.189Z,4.60
2022-11-12T17:38:35.095Z,4.50
2022-11-12T17:41:21.833Z,4.32
2022-11-12T17:44:08.739Z,4.43
2022-11-12T17:46:55.342Z,4.63
2022-11-12T17:49:42.393Z,4.10
2022-11-12T17:52:28.861Z,5.22
2022-11-12T17:55:16.970Z,4.45
2022-11-12T17:58:03.438Z,4.13
2022-11-12T18:00:51.725Z,4.97
2022-11-12T18:03:40.558Z,4.55
2022-11-12T18:06:29.024Z,4.57
2022-11-12T18:09:16.800Z,4.70
2022-11-12T18:12:05.139Z,4.20
2022-11-12T18:14:51.860Z,5.18
2022-11-12T18:17:38.493Z,4.25
2022-11-12T18:20:25.060Z,4.43
2022-11-12T18:23:11.320Z,3.80
2022-11-12T18:25:58.170Z,4.47
2022-11-12T18:28:46.495Z,4.35
2022-11-12T18:31:33.194Z,4.45
2022-11-12T18:34:19.889Z,4.13
2022-11-12T18:37:06.480Z,4.45
2022-11-12T18:39:53.252Z,4.13
2022-11-12T18:42:39.940Z,4.88
2022-11-12T18:45:27.958Z,4.25
2022-11-12T18:48:14.450Z,3.90
2022-11-12T18:51:02.462Z,3.63
2022-11-12T18:53:49.183Z,3.88
2022-11-12T18:56:37.961Z,4.60
2022-11-12T18:59:30.587Z,4.75
2022-11-12T19:02:18.632Z,4.82
2022-11-12T19:05:05.279Z,4.35
2022-11-12T19:07:51.912Z,4.63
2022-11-12T19:10:38.763Z,4.05
2022-11-12T19:13:25.793Z,4.60
2022-11-12T19:16:16.996Z,4.30
2022-11-12T19:19:04.717Z,4.10
2022-11-12T19:21:51.488Z,4.40
2022-11-12T19:24:38.150Z,5.35
2022-11-12T19:27:24.860Z,4.25
2022-11-12T19:30:12.231Z,3.85
2022-11-12T19:32:58.600Z,4.07
2022-11-12T19:35:46.511Z,3.80
2022-11-12T19:38:32.920Z,3.50
2022-11-12T19:41:20.290Z,4.03
2022-11-12T19:44:07.120Z,4.28
2022-11-12T19:46:53.510Z,3.35
2022-11-12T19:49:40.242Z,3.33
2022-11-12T19:52:28.201Z,3.88
2022-11-12T19:55:14.788Z,3.67
2022-11-12T19:58:01.611Z,3.67
2022-11-12T20:00:48.316Z,3.60
2022-11-12T20:03:35.532Z,3.75
2022-11-12T20:06:25.567Z,3.30
2022-11-12T20:09:13.848Z,3.20
2022-11-12T20:12:00.557Z,3.58
2022-11-12T20:14:47.190Z,3.63
2022-11-12T20:17:33.893Z,3.65
2022-11-12T20:20:20.471Z,3.30
2022-11-12T20:23:07.251Z,3.08
2022-11-12T20:25:55.612Z,3.95
2022-11-12T20:28:43.700Z,3.38
2022-11-12T20:31:30.224Z,3.63
2022-11-12T20:34:17.089Z,3.55
2022-11-12T20:37:03.744Z,3.28
2022-11-12T20:39:50.340Z,3.13
2022-11-12T20:42:38.370Z,3.72
2022-11-12T20:45:24.960Z,3.67
2022-11-12T20:48:11.561Z,3.08
2022-11-12T20:51:22.740Z,3.28
2022-11-12T20:54:10.998Z,3.80
2022-11-12T20:56:57.591Z,3.53
2022-11-12T20:59:45.789Z,3.35
2022-11-12T21:02:32.250Z,3.70
2022-11-12T21:05:18.890Z,3.72
2022-11-12T21:08:05.850Z,3.70
2022-11-12T21:10:53.030Z,3.20
2022-11-12T21:13:40.692Z,3.75
2022-11-12T21:16:28.933Z,4.03
2022-11-12T21:19:15.589Z,3.88
2022-11-12T21:22:02.483Z,4.03
2022-11-12T21:24:48.929Z,3.15
2022-11-12T21:27:35.700Z,3.88
2022-11-12T21:30:22.429Z,3.97
2022-11-12T21:33:10.323Z,3.78
2022-11-12T21:35:57.729Z,4.10
2022-11-12T21:38:44.739Z,4.25
2022-11-12T21:41:32.220Z,4.32
2022-11-12T21:44:18.971Z,3.95
2022-11-12T21:47:05.956Z,3.88
2022-11-12T21:49:53.609Z,4.25
2022-11-12T21:52:40.267Z,4.40
2022-11-12T21:55:26.879Z,4.05
2022-11-12T21:58:13.600Z,3.75
2022-11-12T22:01:08.230Z,4.03
2022-11-12T22:03:57.782Z,4.13
2022-11-12T22:06:46.017Z,4.40
2022-11-12T22:09:33.130Z,3.83
2022-11-12T22:12:19.902Z,4.07
2022-11-12T22:15:07.217Z,3.47
2022-11-12T22:17:53.630Z,3.97
2022-11-12T22:20:40.009Z,4.00
2022-11-12T22:23:28.170Z,3.90
2022-11-12T22:26:17.030Z,3.17
2022-11-12T22:29:03.723Z,3.72
2022-11-12T22:31:50.353Z,3.22
2022-11-12T22:34:37.260Z,3.50
2022-11-12T22:37:24.069Z,3.65
2022-11-12T22:40:13.681Z,3.42
2022-11-12T22:43:00.181Z,3.88
2022-11-12T22:45:46.992Z,4.15
2022-11-12T22:48:34.105Z,3.28
2022-11-12T22:51:22.250Z,3.72
2022-11-12T22:54:10.182Z,2.78
2022-11-12T22:56:58.017Z,3.15
2022-11-12T22:59:44.369Z,3.47
2022-11-12T23:02:31.109Z,3.03
2022-11-12T23:05:17.897Z,3.47
2022-11-12T23:08:04.830Z,3.67
2022-11-12T23:10:51.161Z,3.40
2022-11-12T23:13:39.849Z,3.22
2022-11-12T23:16:29.200Z,3.13
2022-11-12T23:19:15.590Z,3.10
2022-11-12T23:22:07.528Z,3.30
2022-11-12T23:24:54.462Z,3.58
2022-11-12T23:27:41.158Z,2.60
2022-11-12T23:30:29.149Z,2.90
2022-11-12T23:33:15.582Z,2.72
2022-11-12T23:36:06.209Z,2.72
2022-11-12T23:38:53.148Z,2.75
2022-11-12T23:41:39.920Z,2.60
2022-11-12T23:44:26.472Z,2.65
2022-11-12T23:47:14.479Z,2.72
2022-11-12T23:50:00.930Z,2.83
2022-11-12T23:52:47.378Z,3.20
2022-11-12T23:55:38.463Z,3.08
2022-11-12T23:58:25.975Z,3.78
